sensor_id;sensor_type;location;lat;lon;timestamp;pressure;altitude;pressure_sealevel;temperature;humidity
78168;BME280;67410;42.698;23.378;2024-01-10T00:01:49;96693.09;;;-4.43;74.31
78168;BME280;67410;42.698;23.378;2024-01-10T00:04:15;96685.50;;;-4.45;74.12
78168;BME280;67410;42.698;23.378;2024-01-10T00:06:43;96690.72;;;-4.46;73.40
78168;BME280;67410;42.698;23.378;2024-01-10T00:09:09;96688.97;;;-4.46;73.78
78168;BME280;67410;42.698;23.378;2024-01-10T00:11:35;96684.84;;;-4.48;73.49
78168;BME280;67410;42.698;23.378;2024-01-10T00:14:01;96691.88;;;-4.37;73.01
78168;BME280;67410;42.698;23.378;2024-01-10T00:16:29;96686.03;;;-4.39;73.68
78168;BME280;67410;42.698;23.378;2024-01-10T00:18:55;96688.97;;;-4.46;73.92
78168;BME280;67410;42.698;23.378;2024-01-10T00:21:21;96686.75;;;-4.37;73.03
78168;BME280;67410;42.698;23.378;2024-01-10T00:23:47;96689.81;;;-4.59;74.01
78168;BME280;67410;42.698;23.378;2024-01-10T00:26:13;96702.00;;;-4.49;73.29
78168;BME280;67410;42.698;23.378;2024-01-10T00:28:39;96696.78;;;-4.47;73.18
78168;BME280;67410;42.698;23.378;2024-01-10T00:31:05;96698.06;;;-4.40;73.05
78168;BME280;67410;42.698;23.378;2024-01-10T00:33:31;96693.47;;;-4.49;73.59
78168;BME280;67410;42.698;23.378;2024-01-10T00:35:58;96705.56;;;-4.37;73.14
78168;BME280;67410;42.698;23.378;2024-01-10T00:38:24;96700.19;;;-4.47;71.66
78168;BME280;67410;42.698;23.378;2024-01-10T00:40:50;96692.84;;;-4.53;71.55
78168;BME280;67410;42.698;23.378;2024-01-10T00:43:17;96705.41;;;-4.48;73.25
78168;BME280;67410;42.698;23.378;2024-01-10T00:45:43;96698.25;;;-4.57;72.61
78168;BME280;67410;42.698;23.378;2024-01-10T00:48:09;96696.88;;;-4.49;73.00
78168;BME280;67410;42.698;23.378;2024-01-10T00:50:36;96695.31;;;-4.51;73.65
78168;BME280;67410;42.698;23.378;2024-01-10T00:53:02;96701.75;;;-4.44;72.32
78168;BME280;67410;42.698;23.378;2024-01-10T00:55:28;96693.38;;;-4.48;72.20
78168;BME280;67410;42.698;23.378;2024-01-10T00:57:54;96707.44;;;-4.39;73.30
78168;BME280;67410;42.698;23.378;2024-01-10T01:00:21;96707.66;;;-4.29;72.45
78168;BME280;67410;42.698;23.378;2024-01-10T01:02:47;96695.91;;;-4.33;72.59
78168;BME280;67410;42.698;23.378;2024-01-10T01:05:13;96705.41;;;-4.48;73.34
78168;BME280;67410;42.698;23.378;2024-01-10T01:07:39;96688.25;;;-4.62;72.47
78168;BME280;67410;42.698;23.378;2024-01-10T01:10:06;96701.56;;;-4.55;73.46
78168;BME280;67410;42.698;23.378;2024-01-10T01:12:34;96701.94;;;-4.90;74.11
78168;BME280;67410;42.698;23.378;2024-01-10T01:15:01;96700.72;;;-4.56;73.77
78168;BME280;67410;42.698;23.378;2024-01-10T01:17:27;96693.41;;;-4.62;73.04
78168;BME280;67410;42.698;23.378;2024-01-10T01:19:54;96689.81;;;-4.45;72.54
78168;BME280;67410;42.698;23.378;2024-01-10T01:22:20;96683.97;;;-4.90;74.29
78168;BME280;67410;42.698;23.378;2024-01-10T01:24:46;96685.63;;;-4.74;74.46
78168;BME280;67410;42.698;23.378;2024-01-10T01:27:12;96690.38;;;-4.54;73.92
78168;BME280;67410;42.698;23.378;2024-01-10T01:29:39;96685.59;;;-4.46;72.20
78168;BME280;67410;42.698;23.378;2024-01-10T01:32:06;96678.16;;;-4.51;73.32
78168;BME280;67410;42.698;23.378;2024-01-10T01:34:32;96690.91;;;-4.49;72.60
78168;BME280;67410;42.698;23.378;2024-01-10T01:36:58;96672.28;;;-4.53;72.35
78168;BME280;67410;42.698;23.378;2024-01-10T01:39:24;96691.38;;;-4.43;73.16
78168;BME280;67410;42.698;23.378;2024-01-10T01:41:50;96672.00;;;-4.62;72.94
78168;BME280;67410;42.698;23.378;2024-01-10T01:44:17;96674.41;;;-4.59;72.97
78168;BME280;67410;42.698;23.378;2024-01-10T01:46:46;96678.56;;;-4.71;73.33
78168;BME280;67410;42.698;23.378;2024-01-10T01:49:12;96682.13;;;-4.88;72.80
78168;BME280;67410;42.698;23.378;2024-01-10T01:51:39;96665.38;;;-4.93;72.21
78168;BME280;67410;42.698;23.378;2024-01-10T01:54:07;96679.47;;;-4.72;72.68
78168;BME280;67410;42.698;23.378;2024-01-10T01:56:37;96680.72;;;-4.65;73.09
78168;BME280;67410;42.698;23.378;2024-01-10T01:59:04;96663.06;;;-4.69;73.09
78168;BME280;67410;42.698;23.378;2024-01-10T02:01:31;96674.97;;;-4.83;72.85
78168;BME280;67410;42.698;23.378;2024-01-10T02:03:58;96667.00;;;-4.78;73.97
78168;BME280;67410;42.698;23.378;2024-01-10T02:06:24;96662.59;;;-4.76;73.11
78168;BME280;67410;42.698;23.378;2024-01-10T02:08:50;96652.97;;;-4.72;73.56
78168;BME280;67410;42.698;23.378;2024-01-10T02:11:18;96655.16;;;-4.66;74.03
78168;BME280;67410;42.698;23.378;2024-01-10T02:13:47;96656.91;;;-4.67;73.38
78168;BME280;67410;42.698;23.378;2024-01-10T02:16:14;96656.09;;;-4.82;73.10
78168;BME280;67410;42.698;23.378;2024-01-10T02:18:42;96657.38;;;-4.74;73.47
78168;BME280;67410;42.698;23.378;2024-01-10T02:21:09;96655.53;;;-4.72;72.58
78168;BME280;67410;42.698;23.378;2024-01-10T02:23:35;96646.63;;;-4.67;72.32
78168;BME280;67410;42.698;23.378;2024-01-10T02:26:01;96651.59;;;-4.78;72.44
78168;BME280;67410;42.698;23.378;2024-01-10T02:28:28;96663.72;;;-4.94;73.06
78168;BME280;67410;42.698;23.378;2024-01-10T02:30:54;96669.09;;;-4.85;72.65
78168;BME280;67410;42.698;23.378;2024-01-10T02:33:21;96665.25;;;-4.92;72.29
78168;BME280;67410;42.698;23.378;2024-01-10T02:35:47;96649.59;;;-5.01;72.41
78168;BME280;67410;42.698;23.378;2024-01-10T02:38:14;96648.84;;;-4.89;73.03
78168;BME280;67410;42.698;23.378;2024-01-10T02:40:40;96666.44;;;-4.83;72.81
78168;BME280;67410;42.698;23.378;2024-01-10T02:43:06;96674.97;;;-4.83;72.73
78168;BME280;67410;42.698;23.378;2024-01-10T02:45:33;96661.41;;;-4.85;72.70
78168;BME280;67410;42.698;23.378;2024-01-10T02:48:00;96666.25;;;-4.66;71.68
78168;BME280;67410;42.698;23.378;2024-01-10T02:50:27;96670.75;;;-4.69;70.90
78168;BME280;67410;42.698;23.378;2024-01-10T02:52:54;96647.91;;;-4.88;72.05
78168;BME280;67410;42.698;23.378;2024-01-10T02:55:20;96666.19;;;-4.79;72.96
78168;BME280;67410;42.698;23.378;2024-01-10T02:57:46;96659.94;;;-4.74;71.89
78168;BME280;67410;42.698;23.378;2024-01-10T03:00:13;96653.28;;;-4.50;69.25
78168;BME280;67410;42.698;23.378;2024-01-10T03:02:39;96656.03;;;-4.53;68.71
78168;BME280;67410;42.698;23.378;2024-01-10T03:05:05;96657.88;;;-4.55;68.80
78168;BME280;67410;42.698;23.378;2024-01-10T03:07:31;96662.47;;;-4.60;69.86
78168;BME280;67410;42.698;23.378;2024-01-10T03:09:57;96661.13;;;-4.80;71.00
78168;BME280;67410;42.698;23.378;2024-01-10T03:12:23;96665.06;;;-4.89;70.17
78168;BME280;67410;42.698;23.378;2024-01-10T03:14:50;96658.28;;;-4.90;70.35
78168;BME280;67410;42.698;23.378;2024-01-10T03:17:16;96661.69;;;-4.75;69.77
78168;BME280;67410;42.698;23.378;2024-01-10T03:19:42;96666.25;;;-4.66;70.24
78168;BME280;67410;42.698;23.378;2024-01-10T03:22:10;96667.09;;;-4.65;70.83
78168;BME280;67410;42.698;23.378;2024-01-10T03:24:39;96669.63;;;-4.51;70.29
78168;BME280;67410;42.698;23.378;2024-01-10T03:27:06;96668.72;;;-4.64;70.46
78168;BME280;67410;42.698;23.378;2024-01-10T03:29:32;96663.09;;;-4.57;69.75
78168;BME280;67410;42.698;23.378;2024-01-10T03:31:58;96657.94;;;-4.43;69.13
78168;BME280;67410;42.698;23.378;2024-01-10T03:34:25;96669.47;;;-4.35;68.13
78168;BME280;67410;42.698;23.378;2024-01-10T03:36:52;96670.03;;;-4.30;67.27
78168;BME280;67410;42.698;23.378;2024-01-10T03:39:18;96663.81;;;-4.40;67.70
78168;BME280;67410;42.698;23.378;2024-01-10T03:41:44;96671.22;;;-4.36;67.71
78168;BME280;67410;42.698;23.378;2024-01-10T03:44:14;96669.16;;;-4.58;68.53
78168;BME280;67410;42.698;23.378;2024-01-10T03:46:40;96666.41;;;-4.55;69.08
78168;BME280;67410;42.698;23.378;2024-01-10T03:49:07;96672.81;;;-4.48;69.26
78168;BME280;67410;42.698;23.378;2024-01-10T03:51:33;96659.53;;;-4.54;70.16
78168;BME280;67410;42.698;23.378;2024-01-10T03:53:59;96666.50;;;-4.56;70.33
78168;BME280;67410;42.698;23.378;2024-01-10T03:56:26;96678.66;;;-4.72;70.21
78168;BME280;67410;42.698;23.378;2024-01-10T03:58:52;96671.50;;;-4.67;69.38
78168;BME280;67410;42.698;23.378;2024-01-10T04:01:22;96670.03;;;-4.86;70.10
78168;BME280;67410;42.698;23.378;2024-01-10T04:03:49;96668.47;;;-4.74;69.56
78168;BME280;67410;42.698;23.378;2024-01-10T04:06:16;96684.94;;;-4.64;69.07
78168;BME280;67410;42.698;23.378;2024-01-10T04:08:43;96681.22;;;-4.87;69.99
78168;BME280;67410;42.698;23.378;2024-01-10T04:11:09;96681.88;;;-4.97;71.06
78168;BME280;67410;42.698;23.378;2024-01-10T04:13:35;96680.50;;;-5.03;70.38
78168;BME280;67410;42.698;23.378;2024-01-10T04:16:01;96678.75;;;-5.02;69.76
78168;BME280;67410;42.698;23.378;2024-01-10T04:18:28;96686.09;;;-4.96;69.58
78168;BME280;67410;42.698;23.378;2024-01-10T04:20:55;96687.94;;;-4.98;69.97
78168;BME280;67410;42.698;23.378;2024-01-10T04:23:22;96684.81;;;-5.03;71.24
78168;BME280;67410;42.698;23.378;2024-01-10T04:25:48;96687.47;;;-5.05;71.05
78168;BME280;67410;42.698;23.378;2024-01-10T04:28:14;96689.00;;;-5.17;70.33
78168;BME280;67410;42.698;23.378;2024-01-10T04:30:41;96688.81;;;-5.14;71.10
78168;BME280;67410;42.698;23.378;2024-01-10T04:33:07;96700.84;;;-5.00;71.91
78168;BME280;67410;42.698;23.378;2024-01-10T04:35:33;96696.63;;;-5.01;72.60
78168;BME280;67410;42.698;23.378;2024-01-10T04:37:59;96716.81;;;-4.95;72.96
78168;BME280;67410;42.698;23.378;2024-01-10T04:40:25;96712.22;;;-4.90;72.53
78168;BME280;67410;42.698;23.378;2024-01-10T04:42:51;96710.03;;;-4.96;72.40
78168;BME280;67410;42.698;23.378;2024-01-10T04:45:17;96713.94;;;-4.90;71.71
78168;BME280;67410;42.698;23.378;2024-01-10T04:47:43;96708.91;;;-5.06;72.39
78168;BME280;67410;42.698;23.378;2024-01-10T04:50:13;96717.44;;;-4.91;71.35
78168;BME280;67410;42.698;23.378;2024-01-10T04:52:39;96715.63;;;-5.03;71.51
78168;BME280;67410;42.698;23.378;2024-01-10T04:55:07;96708.63;;;-5.16;71.26
78168;BME280;67410;42.698;23.378;2024-01-10T04:57:34;96725.25;;;-5.07;71.59
78168;BME280;67410;42.698;23.378;2024-01-10T05:00:02;96733.06;;;-4.94;71.55
78168;BME280;67410;42.698;23.378;2024-01-10T05:02:28;96728.94;;;-4.97;71.62
78168;BME280;67410;42.698;23.378;2024-01-10T05:04:54;96719.91;;;-4.90;72.15
78168;BME280;67410;42.698;23.378;2024-01-10T05:07:22;96728.91;;;-4.83;72.53
78168;BME280;67410;42.698;23.378;2024-01-10T05:09:48;96727.19;;;-4.96;71.99
78168;BME280;67410;42.698;23.378;2024-01-10T05:12:14;96724.88;;;-5.01;72.31
78168;BME280;67410;42.698;23.378;2024-01-10T05:14:41;96707.72;;;-5.00;72.01
78168;BME280;67410;42.698;23.378;2024-01-10T05:17:07;96703.50;;;-5.01;71.40
78168;BME280;67410;42.698;23.378;2024-01-10T05:19:34;96728.19;;;-4.85;70.74
78168;BME280;67410;42.698;23.378;2024-01-10T05:22:00;96732.69;;;-5.02;70.90
78168;BME280;67410;42.698;23.378;2024-01-10T05:24:26;96738.81;;;-4.91;71.11
78168;BME280;67410;42.698;23.378;2024-01-10T05:26:52;96741.81;;;-5.13;72.64
78168;BME280;67410;42.698;23.378;2024-01-10T05:29:18;96746.00;;;-4.96;71.39
78168;BME280;67410;42.698;23.378;2024-01-10T05:31:45;96734.63;;;-5.36;72.17
78168;BME280;67410;42.698;23.378;2024-01-10T05:34:12;96732.38;;;-5.26;72.13
78168;BME280;67410;42.698;23.378;2024-01-10T05:36:39;96738.63;;;-5.46;71.59
78168;BME280;67410;42.698;23.378;2024-01-10T05:39:05;96743.16;;;-5.35;70.55
78168;BME280;67410;42.698;23.378;2024-01-10T05:41:32;96736.19;;;-5.33;70.33
78168;BME280;67410;42.698;23.378;2024-01-10T05:43:58;96739.16;;;-5.55;70.60
78168;BME280;67410;42.698;23.378;2024-01-10T05:46:24;96749.84;;;-5.47;69.92
78168;BME280;67410;42.698;23.378;2024-01-10T05:48:50;96748.94;;;-5.32;69.63
78168;BME280;67410;42.698;23.378;2024-01-10T05:51:16;96741.81;;;-5.27;69.11
78168;BME280;67410;42.698;23.378;2024-01-10T05:53:42;96740.84;;;-5.40;69.25
78168;BME280;67410;42.698;23.378;2024-01-10T05:56:08;96749.78;;;-5.31;69.72
78168;BME280;67410;42.698;23.378;2024-01-10T05:58:35;96751.25;;;-5.27;68.81
78168;BME280;67410;42.698;23.378;2024-01-10T06:01:01;96758.91;;;-5.41;68.46
78168;BME280;67410;42.698;23.378;2024-01-10T06:03:27;96761.78;;;-5.18;68.79
78168;BME280;67410;42.698;23.378;2024-01-10T06:05:53;96755.13;;;-5.20;69.25
78168;BME280;67410;42.698;23.378;2024-01-10T06:08:19;96764.66;;;-5.22;69.64
78168;BME280;67410;42.698;23.378;2024-01-10T06:10:46;96759.59;;;-5.24;70.16
78168;BME280;67410;42.698;23.378;2024-01-10T06:13:12;96759.13;;;-5.16;69.42
78168;BME280;67410;42.698;23.378;2024-01-10T06:15:38;96782.03;;;-4.97;70.00
78168;BME280;67410;42.698;23.378;2024-01-10T06:18:05;96773.84;;;-5.04;69.25
78168;BME280;67410;42.698;23.378;2024-01-10T06:20:31;96781.47;;;-4.88;67.54
78168;BME280;67410;42.698;23.378;2024-01-10T06:22:58;96765.41;;;-4.92;67.03
78168;BME280;67410;42.698;23.378;2024-01-10T06:25:24;96767.81;;;-4.89;67.58
78168;BME280;67410;42.698;23.378;2024-01-10T06:27:53;96778.28;;;-4.78;66.95
78168;BME280;67410;42.698;23.378;2024-01-10T06:30:19;96777.00;;;-4.56;66.64
78168;BME280;67410;42.698;23.378;2024-01-10T06:32:45;96784.91;;;-4.45;65.60
78168;BME280;67410;42.698;23.378;2024-01-10T06:35:11;96787.63;;;-4.34;65.67
78168;BME280;67410;42.698;23.378;2024-01-10T06:37:37;96787.75;;;-4.50;62.14
78168;BME280;67410;42.698;23.378;2024-01-10T06:40:04;96792.97;;;-4.80;63.62
78168;BME280;67410;42.698;23.378;2024-01-10T06:42:31;96788.72;;;-4.81;64.03
78168;BME280;67410;42.698;23.378;2024-01-10T06:44:57;96801.69;;;-4.68;64.86
78168;BME280;67410;42.698;23.378;2024-01-10T06:47:23;96804.06;;;-4.65;64.33
78168;BME280;67410;42.698;23.378;2024-01-10T06:49:49;96806.28;;;-4.73;64.08
78168;BME280;67410;42.698;23.378;2024-01-10T06:52:15;96806.00;;;-4.54;64.34
78168;BME280;67410;42.698;23.378;2024-01-10T06:54:42;96809.69;;;-4.44;64.69
78168;BME280;67410;42.698;23.378;2024-01-10T06:57:08;96806.19;;;-4.43;63.89
78168;BME280;67410;42.698;23.378;2024-01-10T06:59:34;96794.34;;;-4.31;63.83
78168;BME280;67410;42.698;23.378;2024-01-10T07:02:00;96807.19;;;-4.17;62.13
78168;BME280;67410;42.698;23.378;2024-01-10T07:04:27;96808.66;;;-4.13;62.47
78168;BME280;67410;42.698;23.378;2024-01-10T07:06:53;96807.72;;;-3.98;61.39
78168;BME280;67410;42.698;23.378;2024-01-10T07:09:21;96798.34;;;-3.99;60.71
78168;BME280;67410;42.698;23.378;2024-01-10T07:11:47;96801.41;;;-4.21;59.78
78168;BME280;67410;42.698;23.378;2024-01-10T07:14:17;96811.59;;;-3.78;60.07
78168;BME280;67410;42.698;23.378;2024-01-10T07:16:43;96805.47;;;-3.49;60.44
78168;BME280;67410;42.698;23.378;2024-01-10T07:19:14;96812.19;;;-3.07;58.72
78168;BME280;67410;42.698;23.378;2024-01-10T07:21:40;96817.25;;;-2.92;56.12
78168;BME280;67410;42.698;23.378;2024-01-10T07:24:07;96806.88;;;-2.53;56.02
78168;BME280;67410;42.698;23.378;2024-01-10T07:26:37;96814.84;;;-1.57;55.63
78168;BME280;67410;42.698;23.378;2024-01-10T07:29:04;96822.28;;;-1.29;52.84
78168;BME280;67410;42.698;23.378;2024-01-10T07:31:36;96817.34;;;-2.18;53.25
78168;BME280;67410;42.698;23.378;2024-01-10T07:34:02;96825.56;;;-1.87;53.52
78168;BME280;67410;42.698;23.378;2024-01-10T07:36:32;96826.78;;;-1.67;53.37
78168;BME280;67410;42.698;23.378;2024-01-10T07:39:00;96832.38;;;-1.50;52.82
78168;BME280;67410;42.698;23.378;2024-01-10T07:41:28;96832.56;;;-1.16;50.77
78168;BME280;67410;42.698;23.378;2024-01-10T07:43:54;96830.91;;;-1.41;51.11
78168;BME280;67410;42.698;23.378;2024-01-10T07:46:20;96844.66;;;-0.82;49.82
78168;BME280;67410;42.698;23.378;2024-01-10T07:48:48;96845.69;;;-0.49;47.98
78168;BME280;67410;42.698;23.378;2024-01-10T07:51:15;96836.56;;;-1.12;49.51
78168;BME280;67410;42.698;23.378;2024-01-10T07:53:41;96845.84;;;-1.33;50.75
78168;BME280;67410;42.698;23.378;2024-01-10T07:56:07;96841.13;;;-0.35;48.80
78168;BME280;67410;42.698;23.378;2024-01-10T07:58:33;96832.09;;;-0.29;48.08
78168;BME280;67410;42.698;23.378;2024-01-10T08:00:59;96826.22;;;0.14;46.78
78168;BME280;67410;42.698;23.378;2024-01-10T08:03:25;96842.03;;;0.65;45.93
78168;BME280;67410;42.698;23.378;2024-01-10T08:05:51;96837.06;;;0.73;45.14
78168;BME280;67410;42.698;23.378;2024-01-10T08:08:17;96837.44;;;0.57;44.15
78168;BME280;67410;42.698;23.378;2024-01-10T08:10:44;96834.06;;;0.34;43.77
78168;BME280;67410;42.698;23.378;2024-01-10T08:13:10;96841.25;;;0.53;43.00
78168;BME280;67410;42.698;23.378;2024-01-10T08:15:36;96833.81;;;1.45;41.53
78168;BME280;67410;42.698;23.378;2024-01-10T08:18:02;96841.84;;;1.42;40.89
78168;BME280;67410;42.698;23.378;2024-01-10T08:20:29;96847.41;;;1.58;41.08
78168;BME280;67410;42.698;23.378;2024-01-10T08:22:55;96849.13;;;0.95;41.62
78168;BME280;67410;42.698;23.378;2024-01-10T08:25:21;96846.44;;;1.38;41.15
78168;BME280;67410;42.698;23.378;2024-01-10T08:27:48;96840.94;;;0.79;39.84
78168;BME280;67410;42.698;23.378;2024-01-10T08:30:15;96849.16;;;1.16;40.64
78168;BME280;67410;42.698;23.378;2024-01-10T08:32:41;96848.72;;;1.73;42.24
78168;BME280;67410;42.698;23.378;2024-01-10T08:35:07;96844.31;;;2.25;41.18
78168;BME280;67410;42.698;23.378;2024-01-10T08:37:36;96845.34;;;0.99;37.13
78168;BME280;67410;42.698;23.378;2024-01-10T08:40:03;96848.78;;;1.83;39.29
78168;BME280;67410;42.698;23.378;2024-01-10T08:42:35;96855.34;;;1.56;41.97
78168;BME280;67410;42.698;23.378;2024-01-10T08:45:04;96846.16;;;3.13;38.20
78168;BME280;67410;42.698;23.378;2024-01-10T08:47:30;96850.56;;;2.43;36.84
78168;BME280;67410;42.698;23.378;2024-01-10T08:49:58;96851.06;;;3.06;36.20
78168;BME280;67410;42.698;23.378;2024-01-10T08:52:24;96841.44;;;4.93;34.32
78168;BME280;67410;42.698;23.378;2024-01-10T08:54:51;96851.63;;;5.75;34.57
78168;BME280;67410;42.698;23.378;2024-01-10T08:57:18;96848.38;;;6.51;30.28
78168;BME280;67410;42.698;23.378;2024-01-10T08:59:44;96843.97;;;7.10;31.34
78168;BME280;67410;42.698;23.378;2024-01-10T09:02:10;96837.78;;;7.60;31.28
78168;BME280;67410;42.698;23.378;2024-01-10T09:04:36;96842.19;;;7.43;29.81
78168;BME280;67410;42.698;23.378;2024-01-10T09:07:02;96836.22;;;6.92;29.96
78168;BME280;67410;42.698;23.378;2024-01-10T09:09:28;96839.06;;;7.23;30.92
78168;BME280;67410;42.698;23.378;2024-01-10T09:11:54;96830.22;;;7.89;29.35
78168;BME280;67410;42.698;23.378;2024-01-10T09:14:20;96838.25;;;7.79;30.01
78168;BME280;67410;42.698;23.378;2024-01-10T09:16:46;96847.44;;;7.84;28.77
78168;BME280;67410;42.698;23.378;2024-01-10T09:19:12;96838.56;;;7.44;27.40
78168;BME280;67410;42.698;23.378;2024-01-10T09:21:38;96825.44;;;7.11;28.96
78168;BME280;67410;42.698;23.378;2024-01-10T09:24:05;96827.38;;;5.22;30.97
78168;BME280;67410;42.698;23.378;2024-01-10T09:26:34;96834.84;;;6.30;30.88
78168;BME280;67410;42.698;23.378;2024-01-10T09:29:00;96838.81;;;6.84;28.32
78168;BME280;67410;42.698;23.378;2024-01-10T09:31:26;96833.81;;;7.39;30.75
78168;BME280;67410;42.698;23.378;2024-01-10T09:33:52;96827.75;;;5.27;29.12
78168;BME280;67410;42.698;23.378;2024-01-10T09:36:18;96831.56;;;5.94;29.70
78168;BME280;67410;42.698;23.378;2024-01-10T09:38:44;96824.00;;;6.17;30.56
78168;BME280;67410;42.698;23.378;2024-01-10T09:41:11;96821.97;;;6.87;30.94
78168;BME280;67410;42.698;23.378;2024-01-10T09:43:39;96820.81;;;6.39;28.79
78168;BME280;67410;42.698;23.378;2024-01-10T09:46:06;96828.59;;;5.71;32.17
78168;BME280;67410;42.698;23.378;2024-01-10T09:48:33;96821.13;;;6.78;31.69
78168;BME280;67410;42.698;23.378;2024-01-10T09:50:59;96810.91;;;6.59;30.63
78168;BME280;67410;42.698;23.378;2024-01-10T09:53:26;96816.28;;;7.07;30.83
78168;BME280;67410;42.698;23.378;2024-01-10T09:55:53;96815.06;;;6.69;30.02
78168;BME280;67410;42.698;23.378;2024-01-10T09:58:28;96812.34;;;6.45;28.68
78168;BME280;67410;42.698;23.378;2024-01-10T10:00:55;96813.28;;;6.28;29.82
78168;BME280;67410;42.698;23.378;2024-01-10T10:03:21;96806.72;;;5.72;30.10
78168;BME280;67410;42.698;23.378;2024-01-10T10:05:47;96803.09;;;5.47;31.03
78168;BME280;67410;42.698;23.378;2024-01-10T10:08:14;96793.38;;;5.57;32.51
78168;BME280;67410;42.698;23.378;2024-01-10T10:10:42;96797.22;;;4.74;31.49
78168;BME280;67410;42.698;23.378;2024-01-10T10:13:24;96794.03;;;5.16;32.42
78168;BME280;67410;42.698;23.378;2024-01-10T10:16:00;96785.44;;;4.52;32.09
78168;BME280;67410;42.698;23.378;2024-01-10T10:18:27;96772.44;;;4.42;32.25
78168;BME280;67410;42.698;23.378;2024-01-10T10:23:32;96772.69;;;5.64;32.88
78168;BME280;67410;42.698;23.378;2024-01-10T10:25:58;96777.03;;;4.94;32.76
78168;BME280;67410;42.698;23.378;2024-01-10T10:28:28;96771.97;;;5.79;32.39
78168;BME280;67410;42.698;23.378;2024-01-10T10:30:57;96767.16;;;5.23;31.50
78168;BME280;67410;42.698;23.378;2024-01-10T10:33:23;96765.63;;;4.95;32.54
78168;BME280;67410;42.698;23.378;2024-01-10T10:35:50;96758.25;;;4.72;33.93
78168;BME280;67410;42.698;23.378;2024-01-10T10:38:16;96762.03;;;5.14;31.73
78168;BME280;67410;42.698;23.378;2024-01-10T10:40:42;96751.22;;;4.37;32.75
78168;BME280;67410;42.698;23.378;2024-01-10T10:43:12;96749.13;;;4.41;33.04
78168;BME280;67410;42.698;23.378;2024-01-10T10:45:47;96749.06;;;4.68;34.00
78168;BME280;67410;42.698;23.378;2024-01-10T10:48:20;96747.56;;;5.19;32.47
78168;BME280;67410;42.698;23.378;2024-01-10T10:51:17;96739.03;;;4.91;34.97
78168;BME280;67410;42.698;23.378;2024-01-10T10:53:45;96726.72;;;4.48;33.31
78168;BME280;67410;42.698;23.378;2024-01-10T10:56:13;96733.84;;;4.28;37.13
78168;BME280;67410;42.698;23.378;2024-01-10T10:58:43;96733.53;;;3.39;35.86
78168;BME280;67410;42.698;23.378;2024-01-10T11:01:13;96718.44;;;4.35;35.70
78168;BME280;67410;42.698;23.378;2024-01-10T11:03:41;96708.03;;;4.07;35.92
78168;BME280;67410;42.698;23.378;2024-01-10T11:06:13;96726.22;;;3.90;36.71
78168;BME280;67410;42.698;23.378;2024-01-10T11:08:42;96716.13;;;3.77;36.99
78168;BME280;67410;42.698;23.378;2024-01-10T11:19:41;96702.84;;;3.70;37.86
78168;BME280;67410;42.698;23.378;2024-01-10T11:24:48;96697.59;;;4.35;37.44
78168;BME280;67410;42.698;23.378;2024-01-10T11:27:15;96689.03;;;3.60;37.71
78168;BME280;67410;42.698;23.378;2024-01-10T11:29:42;96691.88;;;4.22;38.42
78168;BME280;67410;42.698;23.378;2024-01-10T11:32:18;96690.06;;;4.32;36.97
78168;BME280;67410;42.698;23.378;2024-01-10T11:34:53;96687.00;;;4.36;37.11
78168;BME280;67410;42.698;23.378;2024-01-10T11:37:21;96680.34;;;3.52;38.77
78168;BME280;67410;42.698;23.378;2024-01-10T11:39:47;96677.28;;;3.84;38.93
78168;BME280;67410;42.698;23.378;2024-01-10T11:42:22;96669.53;;;4.72;38.56
78168;BME280;67410;42.698;23.378;2024-01-10T11:44:50;96672.88;;;4.12;37.93
78168;BME280;67410;42.698;23.378;2024-01-10T11:47:19;96662.81;;;3.99;37.92
78168;BME280;67410;42.698;23.378;2024-01-10T11:49:57;96658.88;;;3.67;38.97
78168;BME280;67410;42.698;23.378;2024-01-10T11:52:32;96663.16;;;4.31;38.96
78168;BME280;67410;42.698;23.378;2024-01-10T11:54:58;96661.13;;;4.25;37.35
78168;BME280;67410;42.698;23.378;2024-01-10T11:57:30;96660.31;;;4.42;37.06
78168;BME280;67410;42.698;23.378;2024-01-10T11:59:59;96655.09;;;4.42;36.89
78168;BME280;67410;42.698;23.378;2024-01-10T12:02:26;96652.84;;;4.65;37.00
78168;BME280;67410;42.698;23.378;2024-01-10T12:04:54;96649.44;;;3.84;38.92
78168;BME280;67410;42.698;23.378;2024-01-10T12:07:21;96648.34;;;3.87;38.30
78168;BME280;67410;42.698;23.378;2024-01-10T12:09:47;96643.25;;;3.67;38.82
78168;BME280;67410;42.698;23.378;2024-01-10T12:12:14;96643.34;;;3.76;39.22
78168;BME280;67410;42.698;23.378;2024-01-10T12:14:41;96637.22;;;3.30;39.93
78168;BME280;67410;42.698;23.378;2024-01-10T12:17:09;96634.78;;;3.28;40.14
78168;BME280;67410;42.698;23.378;2024-01-10T12:19:35;96643.28;;;3.58;40.73
78168;BME280;67410;42.698;23.378;2024-01-10T12:22:04;96631.06;;;3.31;40.29
78168;BME280;67410;42.698;23.378;2024-01-10T12:24:31;96632.13;;;3.38;40.27
78168;BME280;67410;42.698;23.378;2024-01-10T12:26:58;96633.22;;;3.45;40.65
78168;BME280;67410;42.698;23.378;2024-01-10T12:29:25;96634.25;;;3.25;41.22
78168;BME280;67410;42.698;23.378;2024-01-10T12:31:51;96629.97;;;2.77;41.34
78168;BME280;67410;42.698;23.378;2024-01-10T12:34:20;96635.81;;;3.08;42.22
78168;BME280;67410;42.698;23.378;2024-01-10T12:36:47;96640.09;;;2.90;41.76
78168;BME280;67410;42.698;23.378;2024-01-10T12:39:14;96630.69;;;2.50;42.93
78168;BME280;67410;42.698;23.378;2024-01-10T12:41:41;96644.13;;;2.65;42.17
78168;BME280;67410;42.698;23.378;2024-01-10T12:44:07;96637.28;;;2.54;43.31
78168;BME280;67410;42.698;23.378;2024-01-10T12:46:33;96633.59;;;2.28;43.38
78168;BME280;67410;42.698;23.378;2024-01-10T12:49:06;96635.91;;;2.02;45.71
78168;BME280;67410;42.698;23.378;2024-01-10T12:51:34;96636.59;;;2.23;45.39
78168;BME280;67410;42.698;23.378;2024-01-10T12:54:02;96634.41;;;2.38;44.63
78168;BME280;67410;42.698;23.378;2024-01-10T12:56:30;96631.53;;;2.41;44.26
78168;BME280;67410;42.698;23.378;2024-01-10T12:58:56;96630.72;;;2.31;44.62
78168;BME280;67410;42.698;23.378;2024-01-10T13:01:25;96632.63;;;2.19;46.02
78168;BME280;67410;42.698;23.378;2024-01-10T13:03:52;96634.44;;;2.19;44.94
78168;BME280;67410;42.698;23.378;2024-01-10T13:06:18;96637.56;;;2.13;45.73